Kylertown, PA

2:04 PM EDT on September 02, 2015 (GMT -0400)
Du Bois-Jefferson County | | Change Station
CLOSE
Current Station
Airport
Location: Du Bois,
Elevation: 1818 ft
Nearby Weather Stations

Elev 1818 ft 41.18 °N, 78.90 °W | Updated 11 minutes ago

Partly Cloudy
Partly Cloudy
84 °F
Feels Like 85 °F
N
8
Wind Variable Wind from West

Today
High -- | Low -- °F
--% Chance of Precip.
Yesterday
High -- | Low -- °F
Precip. -- in
6:40 AM 7:43 PM
Waning Gibbous, 78% visible
Pressure 30.02 in
Visibility 7.0 miles
Clouds Clear
Heat Index 85 °F
Dew Point 63 °F
Humidity 49%
Rainfall 0.00 in
Snow Depth Not available.
UV 9 out of 12
Pollen 10.00 out of 12
Air Quality Not available.
Flu Activity Not available.
METAR KDUJ 021753Z AUTO 26007KT 7SM CLR 29/17 A3007 RMK AO2 SLP166 T02890172 10300 20200 58017
Pressure 30.02 in
Visibility 7.0 miles
Clouds Clear
Heat Index 85 °F
Dew Point 63 °F
Humidity 49%
Rainfall 0.00 in
Snow Depth Not available.
UV 9 out of 12
Pollen 10.00 out of 12
Air Quality Not available.
Flu Activity Not available.
METAR KDUJ 021753Z AUTO 26007KT 7SM CLR 29/17 A3007 RMK AO2 SLP166 T02890172 10300 20200 58017
Nowcast | as of 12:59 PM EDT on September 2, 2015

Isolated showers and thunderstorms will be across south central Pennsylvania this afternoon. Most of the activity will be south of a Johnstown...Chambersburg line. A brief heavy downpour will be possible. The showers and storms are moving southeast at 15 mph.

×

10-Day Weather Forecast

×

Almanac

Astronomy

Sep. 02, 2015 Rise Set
Actual Time
Civil Twilight
Nautical Twilight
Astronomical Twilight
Moon
Length of Visible Light
Length of Day
Tomorrow will be .
, % of the Moon is Illuminated

Today's Extremes

State Highs State Lows

Community

WunderPhotos

Upload Photos

1,851,789 photos uploaded!

WunderBlogs® & News

Nearby

Air Quality

  Air Quality AQ Index Pollutant
Not available.

Snow Depth

Station Depth Elevation

Earthquake Activity

City Distance Mag. Time & Date
Minimum magnitude displayed is 2.5.

Coastal Water Temperatures

Place Temperature

Stations

Nearby Weather Stations

Station Location Temp. Windchill Dew Point Humidity Wind Precip. Elev Updated Type